This is the latest recevied weather packets stored in our database for station/object AD8BV. If no packets are shown the sender has not sent any weather packets the latest 10 day(s).
| Time | Temp. | Humidity | Pressure | Rain* | Wind** | Luminosity | Snow |
|---|---|---|---|---|---|---|---|
| 1777951666 | 15° C | 90% | 1002.1 hPa | 3.05 mm | - | 0 W/m² | - |
| 1777951362 | 16.11° C | 88% | 1002.5 hPa | 3.05 mm | - | 0 W/m² | - |
| 1777951059 | 16.67° C | 84% | 1002.6 hPa | 1.78 mm | - | 0 W/m² | - |
| 1777950755 | 18.33° C | 78% | 1002.5 hPa | 0 mm | - | 0 W/m² | - |
| 1777950452 | 18.89° C | 73% | 1002.7 hPa | 0 mm | - | 0 W/m² | - |
| 1777950148 | 18.89° C | 73% | 1002.3 hPa | 0 mm | - | 0 W/m² | - |
| 1777949844 | 18.89° C | 73% | 1002.2 hPa | 0 mm | - | 0 W/m² | - |
| 1777949543 | 18.89° C | 73% | 1002.4 hPa | 0 mm | - | 0 W/m² | - |
| 1777949241 | 18.89° C | 73% | 1002.3 hPa | 0 mm | - | 0 W/m² | - |
| 1777948937 | 18.89° C | 72% | 1002.1 hPa | 0 mm | - | 0 W/m² | - |
| 1777948635 | 18.89° C | 72% | 1002.2 hPa | 0 mm | - | 0 W/m² | - |
| 1777948332 | 18.89° C | 71% | 1002.1 hPa | 0 mm | - | 0 W/m² | - |
| 1777948030 | 18.89° C | 73% | 1002 hPa | 0 mm | - | 0 W/m² | - |
| 1777947726 | 19.44° C | 70% | 1001.8 hPa | 0 mm | - | 0 W/m² | - |
| 1777947423 | 19.44° C | 70% | 1001.8 hPa | 0 mm | - | 0 W/m² | - |
| 1777947120 | 19.44° C | 70% | 1001.6 hPa | 0 mm | - | 0 W/m² | - |
| 1777946816 | 18.89° C | 71% | 1001.7 hPa | 0 mm | - | 0 W/m² | - |
| 1777946511 | 18.89° C | 70% | 1001.7 hPa | 0 mm | - | 0 W/m² | - |
| 1777946209 | 18.89° C | 72% | 1001.6 hPa | 0 mm | - | 0 W/m² | - |
| 1777945905 | 18.33° C | 74% | 1001.2 hPa | 0 mm | - | 0 W/m² | - |
| 1777945602 | 18.89° C | 74% | 1001.2 hPa | 0 mm | - | 0 W/m² | - |
| 1777945299 | 18.33° C | 74% | 1001.2 hPa | 0 mm | - | 0 W/m² | - |
| 1777944997 | 18.33° C | 75% | 1001.3 hPa | 0 mm | - | 0 W/m² | - |
| 1777944694 | 18.33° C | 76% | 1001.1 hPa | 0 mm | - | 0 W/m² | - |
| 1777944392 | 17.78° C | 76% | 1001.1 hPa | 0 mm | - | 0 W/m² | - |
* Rain latest hour (hover to see other rain measurements)
** Current wind speed in m/s (hover to see current wind gust speed)